logo
Search for airport 
image banner adimage banner adimage banner ad
image banner ad

RPVM - Mactan-Cebu International Airport

Located in Lapu-Lapu City, Philippines

ICAO - RPVM, IATA - CEB

Data provided by Airmate  

General information

Coordinates: N10°18'27" E123°58'46"
Elevation is 34 feet MSL.
Magnetic variation is -2° East
Rated:
View ratings:
[VIEW]
View others Airports in Cebu

Operational data

Special qualification required
Current time UTC:
Current local time:
Weather
METAR: RPVM 220900Z 03010KT 9999 FEW020 32/25 Q1008 NOSIG RMK A2977
TAF: TAF RPVM 220500Z 2206/2312 05007KT 9999 FEW020 SCT300 TEMPO 2212/2218 08006KT
View NOTAMs / SUP AIP / TFR affecting this airport [VIEW]
Communications frequencies: [VIEW]

Runways:

RWY identifierQFULength (ft)Width (ft)SurfaceLDA (ft)
0445°10860148CONC+ASPH10860
22225°10860148CONC+ASPH10860

Airport contact information

Address: Lapu-Lapu City Philippines

Satellite view of RPVM